createdAt,value
2022-10-21T00:02:16.238Z,13.60
2022-10-21T00:04:43.120Z,13.60
2022-10-21T00:07:10.033Z,13.60
2022-10-21T00:09:37.005Z,13.60
2022-10-21T00:12:04.912Z,13.60
2022-10-21T00:14:32.114Z,13.60
2022-10-21T00:16:59.408Z,13.60
2022-10-21T00:19:26.244Z,13.70
2022-10-21T00:21:53.587Z,13.60
2022-10-21T00:24:20.455Z,13.60
2022-10-21T00:26:50.515Z,13.60
2022-10-21T00:29:17.449Z,13.60
2022-10-21T00:31:44.326Z,13.60
2022-10-21T00:34:11.079Z,13.50
2022-10-21T00:36:37.828Z,13.60
2022-10-21T00:39:04.808Z,13.60
2022-10-21T00:41:31.557Z,13.60
2022-10-21T00:44:00.508Z,13.50
2022-10-21T00:46:40.031Z,13.50
2022-10-21T00:49:09.408Z,13.50
2022-10-21T00:51:36.185Z,13.50
2022-10-21T00:54:02.995Z,13.50
2022-10-21T00:56:30.565Z,13.50
2022-10-21T00:58:58.771Z,13.50
2022-10-21T01:01:25.529Z,13.50
2022-10-21T01:03:52.365Z,13.50
2022-10-21T01:06:20.821Z,13.60
2022-10-21T01:08:47.568Z,13.50
2022-10-21T01:11:16.313Z,13.50
2022-10-21T01:14:19.877Z,13.50
2022-10-21T01:16:55.660Z,13.50
2022-10-21T01:19:47.384Z,13.50
2022-10-21T01:22:34.968Z,13.50
2022-10-21T01:25:24.713Z,13.50
2022-10-21T01:28:10.591Z,13.40
2022-10-21T01:30:49.523Z,13.40
2022-10-21T01:33:28.288Z,13.40
2022-10-21T01:36:04.740Z,13.40
2022-10-21T01:38:52.323Z,13.40
2022-10-21T01:41:44.096Z,13.40
2022-10-21T01:44:16.288Z,13.40
2022-10-21T01:46:49.839Z,13.30
2022-10-21T01:49:35.973Z,13.40
2022-10-21T01:52:02.688Z,13.30
2022-10-21T01:54:34.746Z,13.30
2022-10-21T01:57:01.755Z,13.30
2022-10-21T01:59:30.488Z,13.30
2022-10-21T02:01:57.767Z,13.20
2022-10-21T02:04:24.637Z,13.20
2022-10-21T02:06:51.357Z,13.20
2022-10-21T02:09:18.427Z,13.20
2022-10-21T02:11:45.777Z,13.20
2022-10-21T02:14:19.960Z,13.20
2022-10-21T02:16:46.614Z,13.20
2022-10-21T02:19:14.965Z,13.20
2022-10-21T02:21:41.772Z,13.20
2022-10-21T02:24:08.759Z,13.10
2022-10-21T02:26:35.785Z,13.10
2022-10-21T02:29:02.668Z,13.10
2022-10-21T02:31:44.516Z,13.10
2022-10-21T02:34:27.071Z,13.00
2022-10-21T02:36:57.124Z,13.00
2022-10-21T02:39:34.408Z,13.00
2022-10-21T02:42:03.856Z,13.00
2022-10-21T02:44:30.602Z,13.00
2022-10-21T02:46:57.465Z,13.00
2022-10-21T02:49:24.405Z,13.00
2022-10-21T02:51:51.351Z,13.00
2022-10-21T02:54:18.317Z,13.00
2022-10-21T02:56:45.060Z,13.00
2022-10-21T02:59:11.865Z,12.90
2022-10-21T03:01:38.641Z,13.00
2022-10-21T03:04:05.517Z,13.00
2022-10-21T03:06:32.516Z,13.00
2022-10-21T03:09:02.624Z,13.00
2022-10-21T03:11:29.450Z,13.00
2022-10-21T03:13:56.178Z,13.00
2022-10-21T03:16:23.018Z,13.00
2022-10-21T03:18:49.946Z,13.00
2022-10-21T03:21:16.744Z,13.00
2022-10-21T03:23:43.417Z,13.00
2022-10-21T03:26:14.506Z,13.00
2022-10-21T03:28:41.370Z,13.00
2022-10-21T03:31:08.275Z,13.00
2022-10-21T03:33:35.168Z,13.00
2022-10-21T03:36:01.929Z,13.10
2022-10-21T03:38:28.721Z,13.10
2022-10-21T03:40:55.420Z,13.10
2022-10-21T03:43:22.078Z,13.10
2022-10-21T03:45:48.774Z,13.10
2022-10-21T03:48:15.516Z,13.10
2022-10-21T03:50:42.184Z,13.10
2022-10-21T03:53:18.637Z,13.10
2022-10-21T03:55:56.492Z,13.10
2022-10-21T03:58:25.341Z,13.10
2022-10-21T04:00:53.256Z,13.10
2022-10-21T04:03:20.983Z,13.10
2022-10-21T04:05:47.652Z,13.10
2022-10-21T04:08:14.561Z,13.10
2022-10-21T04:10:41.199Z,13.10
2022-10-21T04:13:07.884Z,13.10
2022-10-21T04:15:34.559Z,13.10
2022-10-21T04:18:01.324Z,13.20
2022-10-21T04:20:28.023Z,13.20
2022-10-21T04:22:54.736Z,13.20
2022-10-21T04:25:21.423Z,13.20
2022-10-21T04:27:48.157Z,13.20
2022-10-21T04:30:15.028Z,13.20
2022-10-21T04:32:42.937Z,13.20
2022-10-21T04:35:09.909Z,13.20
2022-10-21T04:37:39.919Z,13.20
2022-10-21T04:40:08.196Z,13.20
2022-10-21T04:42:39.036Z,13.20
2022-10-21T04:45:10.237Z,13.20
2022-10-21T04:47:37.154Z,13.20
2022-10-21T04:50:04.365Z,13.20
2022-10-21T04:52:31.035Z,13.20
2022-10-21T04:54:57.945Z,13.20
2022-10-21T04:57:24.676Z,13.30
2022-10-21T04:59:51.423Z,13.20
2022-10-21T05:02:24.441Z,13.30
2022-10-21T05:04:52.228Z,13.30
2022-10-21T05:07:23.129Z,13.40
2022-10-21T05:09:49.960Z,13.40
2022-10-21T05:12:16.665Z,13.40
2022-10-21T05:14:43.376Z,13.50
2022-10-21T05:17:10.155Z,13.50
2022-10-21T05:19:36.868Z,13.60
2022-10-21T05:22:07.132Z,13.60
2022-10-21T05:24:38.744Z,13.60
2022-10-21T05:27:05.645Z,13.70
2022-10-21T05:29:33.575Z,13.60
2022-10-21T05:32:00.308Z,13.70
2022-10-21T05:34:27.192Z,13.70
2022-10-21T05:36:53.889Z,13.60
2022-10-21T05:39:20.710Z,13.70
2022-10-21T05:41:50.418Z,13.70
2022-10-21T05:44:17.216Z,13.70
2022-10-21T05:46:44.141Z,13.70
2022-10-21T05:49:15.965Z,13.70
2022-10-21T05:51:44.612Z,13.70
2022-10-21T05:54:17.616Z,13.70
2022-10-21T05:56:44.894Z,13.80
2022-10-21T05:59:11.765Z,13.80
2022-10-21T06:01:39.597Z,13.90
2022-10-21T06:04:06.662Z,14.10
2022-10-21T06:06:33.537Z,14.20
2022-10-21T06:09:00.849Z,14.20
2022-10-21T06:11:28.767Z,14.30
2022-10-21T06:13:55.431Z,14.40
2022-10-21T06:16:23.411Z,14.40
2022-10-21T06:18:50.194Z,14.40
2022-10-21T06:21:17.248Z,14.40
2022-10-21T06:23:43.972Z,14.40
2022-10-21T06:26:12.020Z,14.30
2022-10-21T06:28:40.212Z,14.30
2022-10-21T06:31:07.433Z,14.30
2022-10-21T06:33:34.399Z,14.30
2022-10-21T06:36:01.193Z,14.30
2022-10-21T06:38:27.918Z,14.30
2022-10-21T06:41:06.888Z,14.30
2022-10-21T06:43:35.941Z,14.30
2022-10-21T06:46:04.900Z,14.30
2022-10-21T06:48:31.568Z,14.30
2022-10-21T06:51:02.927Z,14.30
2022-10-21T06:53:51.435Z,14.30
2022-10-21T06:56:18.504Z,14.30
2022-10-21T06:58:49.059Z,14.30
2022-10-21T07:01:34.376Z,14.30
2022-10-21T07:04:08.277Z,14.30
2022-10-21T07:10:33.909Z,14.30
2022-10-21T07:13:00.617Z,14.30
2022-10-21T07:15:27.381Z,14.30
2022-10-21T07:18:00.752Z,14.30
2022-10-21T07:20:53.167Z,14.30
2022-10-21T07:23:20.059Z,14.30
2022-10-21T07:25:46.811Z,14.30
2022-10-21T07:28:14.575Z,14.30
2022-10-21T07:30:42.593Z,14.30
2022-10-21T07:33:11.600Z,14.30
2022-10-21T07:35:40.488Z,14.30
2022-10-21T07:38:08.298Z,14.30
2022-10-21T07:40:45.820Z,14.30
2022-10-21T07:43:16.298Z,14.30
2022-10-21T07:45:44.572Z,14.30
2022-10-21T07:48:11.280Z,14.30
2022-10-21T07:50:38.018Z,14.30
2022-10-21T07:53:12.145Z,14.40
2022-10-21T07:55:39.578Z,14.40
2022-10-21T07:58:06.247Z,14.40
2022-10-21T08:00:32.949Z,14.40
2022-10-21T08:02:59.865Z,14.40
2022-10-21T08:05:26.708Z,14.40
2022-10-21T08:07:53.483Z,14.40
2022-10-21T08:10:20.236Z,14.40
2022-10-21T08:12:46.990Z,14.40
2022-10-21T08:15:13.722Z,14.40
2022-10-21T08:17:40.481Z,14.40
2022-10-21T08:20:08.022Z,14.40
2022-10-21T08:22:34.887Z,14.40
2022-10-21T08:25:01.606Z,14.40
2022-10-21T08:27:29.946Z,14.40
2022-10-21T08:29:56.767Z,14.40
2022-10-21T08:32:23.420Z,14.40
2022-10-21T08:34:50.196Z,14.40
2022-10-21T08:37:16.959Z,14.40
2022-10-21T08:39:43.623Z,14.40
2022-10-21T08:42:16.954Z,14.40
2022-10-21T08:44:48.337Z,14.40
2022-10-21T08:47:24.081Z,14.50
2022-10-21T08:50:13.759Z,14.50
2022-10-21T08:52:46.365Z,14.50
2022-10-21T08:55:20.557Z,14.50
2022-10-21T08:57:50.874Z,14.50
2022-10-21T09:00:19.025Z,14.60
2022-10-21T09:02:54.795Z,14.60
2022-10-21T09:05:43.314Z,14.60
2022-10-21T09:08:18.970Z,14.70
2022-10-21T09:11:10.822Z,14.80
2022-10-21T09:14:16.714Z,14.80
2022-10-21T09:16:52.641Z,14.80
2022-10-21T09:20:01.877Z,14.80
2022-10-21T09:22:53.630Z,14.90
2022-10-21T09:25:33.221Z,15.00
2022-10-21T09:28:01.429Z,15.00
2022-10-21T09:30:28.446Z,15.00
2022-10-21T09:32:59.477Z,15.10
2022-10-21T09:35:36.647Z,15.10
2022-10-21T09:38:12.429Z,15.10
2022-10-21T09:40:49.881Z,15.10
2022-10-21T09:43:34.983Z,15.10
2022-10-21T09:46:05.276Z,15.10
2022-10-21T09:49:08.193Z,15.20
2022-10-21T09:51:34.367Z,15.30
2022-10-21T09:54:13.579Z,15.50
2022-10-21T09:56:45.206Z,15.70
2022-10-21T09:59:15.193Z,15.70
2022-10-21T10:01:42.528Z,15.70
2022-10-21T10:04:24.302Z,15.60
2022-10-21T10:06:51.213Z,15.60
2022-10-21T10:09:28.877Z,15.70
2022-10-21T10:11:58.552Z,15.70
2022-10-21T10:14:31.360Z,15.70
2022-10-21T10:16:58.975Z,15.80
2022-10-21T10:19:27.410Z,15.80
2022-10-21T10:22:13.681Z,15.90
2022-10-21T10:24:41.568Z,16.00
2022-10-21T10:27:19.300Z,16.00
2022-10-21T10:29:56.287Z,15.90
2022-10-21T10:32:24.144Z,15.90
2022-10-21T10:34:59.031Z,15.90
2022-10-21T10:37:31.349Z,15.80
2022-10-21T10:39:58.654Z,15.90
2022-10-21T10:42:27.218Z,15.90
2022-10-21T10:44:58.151Z,16.00
2022-10-21T10:47:35.571Z,16.10
2022-10-21T10:50:02.377Z,16.20
2022-10-21T10:52:29.197Z,16.20
2022-10-21T10:55:11.272Z,16.30
2022-10-21T10:57:51.974Z,16.30
2022-10-21T11:00:25.115Z,16.20
2022-10-21T11:02:57.388Z,16.20
2022-10-21T11:05:30.312Z,16.20
2022-10-21T11:08:01.740Z,16.30
2022-10-21T11:10:32.710Z,16.40
2022-10-21T11:13:00.834Z,16.40
2022-10-21T11:15:51.135Z,16.40
2022-10-21T11:18:31.129Z,16.40
2022-10-21T11:21:37.689Z,16.40
2022-10-21T11:24:32.739Z,16.40
2022-10-21T11:27:13.438Z,16.50
2022-10-21T11:30:06.617Z,16.50
2022-10-21T11:32:45.438Z,16.90
2022-10-21T11:35:27.788Z,17.10
2022-10-21T11:38:09.015Z,17.20
2022-10-21T11:40:38.996Z,17.30
2022-10-21T11:43:18.562Z,17.20
2022-10-21T11:46:10.975Z,17.30
2022-10-21T11:48:37.908Z,17.40
2022-10-21T11:51:08.834Z,17.60
2022-10-21T11:53:45.227Z,17.80
2022-10-21T11:56:39.992Z,17.80
2022-10-21T11:59:28.106Z,17.60
2022-10-21T12:02:09.327Z,17.40
2022-10-21T12:04:39.540Z,17.40
2022-10-21T12:07:24.828Z,17.30
2022-10-21T12:09:55.706Z,17.30
2022-10-21T12:12:23.949Z,17.30
2022-10-21T12:14:58.709Z,17.20
2022-10-21T12:17:25.931Z,17.10
2022-10-21T12:20:02.047Z,17.10
2022-10-21T12:22:49.571Z,17.10
2022-10-21T12:25:17.223Z,17.00
2022-10-21T12:27:49.839Z,17.10
2022-10-21T12:30:24.845Z,17.10
2022-10-21T12:33:17.578Z,17.10
2022-10-21T12:36:11.757Z,17.00
2022-10-21T12:38:47.810Z,17.10
2022-10-21T12:41:24.798Z,17.10
2022-10-21T12:44:17.789Z,17.20
2022-10-21T12:46:45.968Z,17.30
2022-10-21T12:49:27.466Z,17.40
2022-10-21T12:51:58.482Z,17.50
2022-10-21T12:54:30.382Z,17.70
2022-10-21T12:57:04.969Z,18.60
2022-10-21T12:59:37.095Z,19.90
2022-10-21T13:02:07.950Z,20.60
2022-10-21T13:04:34.841Z,21.10
2022-10-21T13:07:16.977Z,21.10
2022-10-21T13:09:43.630Z,20.80
2022-10-21T13:12:10.346Z,20.50
2022-10-21T13:14:47.557Z,20.30
2022-10-21T13:17:53.272Z,19.90
2022-10-21T13:20:19.891Z,19.80
2022-10-21T13:23:01.978Z,19.70
2022-10-21T13:25:32.581Z,19.50
2022-10-21T13:28:14.724Z,19.40
2022-10-21T13:30:50.633Z,19.20
2022-10-21T13:33:34.141Z,19.10
2022-10-21T13:36:11.455Z,19.00
2022-10-21T13:38:46.915Z,19.00
2022-10-21T13:41:24.052Z,18.90
2022-10-21T13:43:56.249Z,18.90
2022-10-21T13:46:37.826Z,18.90
2022-10-21T13:49:28.141Z,18.70
2022-10-21T13:51:54.810Z,18.70
2022-10-21T13:54:21.472Z,18.60
2022-10-21T13:56:48.136Z,18.60
2022-10-21T13:59:26.029Z,18.60
2022-10-21T14:01:54.330Z,18.50
2022-10-21T14:04:26.171Z,18.40
2022-10-21T14:06:58.350Z,18.40
2022-10-21T14:09:33.636Z,18.40
2022-10-21T14:12:05.673Z,18.20
2022-10-21T14:14:33.247Z,18.10
2022-10-21T14:17:08.084Z,18.10
2022-10-21T14:19:37.670Z,18.00
2022-10-21T14:22:04.727Z,18.00
2022-10-21T14:24:38.996Z,17.90
2022-10-21T14:27:05.788Z,17.90
2022-10-21T14:29:33.654Z,17.90
2022-10-21T14:32:00.818Z,17.90
2022-10-21T14:34:29.153Z,17.90
2022-10-21T14:37:09.311Z,17.80
2022-10-21T14:39:38.493Z,17.90
2022-10-21T14:42:12.685Z,17.90
2022-10-21T14:44:39.475Z,17.90
2022-10-21T14:47:06.246Z,17.90
2022-10-21T14:49:33.585Z,17.90
2022-10-21T14:52:14.883Z,17.90
2022-10-21T14:54:54.899Z,17.80
2022-10-21T14:57:51.346Z,17.80
2022-10-21T15:00:30.115Z,17.70
2022-10-21T15:02:57.859Z,17.70
2022-10-21T15:05:35.371Z,17.60
2022-10-21T15:08:20.617Z,17.50
2022-10-21T15:10:56.722Z,17.60
2022-10-21T15:13:24.363Z,17.50
2022-10-21T15:15:54.746Z,17.50
2022-10-21T15:18:32.133Z,17.40
2022-10-21T15:21:02.956Z,17.40
2022-10-21T15:23:31.643Z,17.40
2022-10-21T15:26:24.898Z,17.40
2022-10-21T15:28:52.079Z,17.40
2022-10-21T15:31:23.427Z,17.40
2022-10-21T15:33:50.724Z,17.40
2022-10-21T15:36:18.901Z,17.30
2022-10-21T15:38:48.731Z,17.30
2022-10-21T15:41:25.046Z,17.30
2022-10-21T15:44:01.486Z,17.20
2022-10-21T15:46:29.321Z,17.10
2022-10-21T15:48:56.145Z,17.10
2022-10-21T15:51:22.853Z,17.10
2022-10-21T15:53:49.518Z,17.00
2022-10-21T15:56:17.394Z,17.00
2022-10-21T15:58:44.084Z,17.00
2022-10-21T16:01:17.184Z,17.00
2022-10-21T16:03:44.426Z,16.90
2022-10-21T16:06:15.944Z,16.90
2022-10-21T16:08:42.730Z,16.80
2022-10-21T16:11:12.810Z,16.80
2022-10-21T16:13:39.514Z,16.80
2022-10-21T16:16:28.558Z,16.70
2022-10-21T16:18:55.354Z,16.70
2022-10-21T16:21:22.523Z,16.60
2022-10-21T16:23:49.252Z,16.60
2022-10-21T16:26:16.836Z,16.50
2022-10-21T16:28:43.539Z,16.50
2022-10-21T16:31:11.614Z,16.40
2022-10-21T16:33:38.399Z,16.40
2022-10-21T16:36:15.773Z,16.30
2022-10-21T16:38:47.021Z,16.30
2022-10-21T16:41:15.141Z,16.20
2022-10-21T16:43:41.986Z,16.20
2022-10-21T16:46:31.080Z,16.20
2022-10-21T16:48:58.581Z,16.10
2022-10-21T16:51:26.690Z,16.10
2022-10-21T16:53:53.345Z,16.10
2022-10-21T16:56:20.258Z,16.00
2022-10-21T16:58:47.022Z,16.00
2022-10-21T17:01:15.492Z,16.00
2022-10-21T17:03:42.383Z,16.00
2022-10-21T17:06:13.345Z,16.00
2022-10-21T17:08:40.148Z,16.00
2022-10-21T17:11:14.293Z,16.00
2022-10-21T17:13:42.242Z,16.00
2022-10-21T17:16:09.040Z,15.90
2022-10-21T17:18:35.752Z,15.90
2022-10-21T17:21:02.612Z,15.80
2022-10-21T17:23:29.493Z,15.80
2022-10-21T17:25:56.358Z,15.80
2022-10-21T17:28:23.023Z,15.80
2022-10-21T17:30:50.823Z,15.70
2022-10-21T17:33:17.474Z,15.70
2022-10-21T17:35:44.207Z,15.70
2022-10-21T17:38:10.868Z,15.70
2022-10-21T17:40:37.583Z,15.70
2022-10-21T17:43:04.276Z,15.70
2022-10-21T17:45:31.089Z,15.60
2022-10-21T17:47:58.538Z,15.70
2022-10-21T17:50:25.860Z,15.60
2022-10-21T17:52:53.527Z,15.60
2022-10-21T17:55:21.575Z,15.60
2022-10-21T17:57:48.301Z,15.50
2022-10-21T18:00:15.303Z,15.50
2022-10-21T18:02:42.197Z,15.50
2022-10-21T18:05:09.861Z,15.50
2022-10-21T18:07:37.075Z,15.50
2022-10-21T18:10:05.245Z,15.50
2022-10-21T18:12:32.030Z,15.40
2022-10-21T18:14:58.888Z,15.40
2022-10-21T18:17:25.649Z,15.40
2022-10-21T18:19:52.463Z,15.40
2022-10-21T18:22:21.047Z,15.40
2022-10-21T18:24:47.709Z,15.40
2022-10-21T18:27:14.371Z,15.40
2022-10-21T18:29:41.043Z,15.30
2022-10-21T18:32:12.454Z,15.40
2022-10-21T18:34:42.294Z,15.30
2022-10-21T18:37:09.007Z,15.30
2022-10-21T18:39:35.679Z,15.30
2022-10-21T18:42:02.429Z,15.30
2022-10-21T18:44:30.283Z,15.30
2022-10-21T18:46:56.959Z,15.30
2022-10-21T18:49:23.779Z,15.20
2022-10-21T18:51:50.560Z,15.10
2022-10-21T18:54:17.386Z,15.00
2022-10-21T18:56:44.909Z,14.90
2022-10-21T18:59:12.356Z,14.90
2022-10-21T19:01:40.226Z,14.80
2022-10-21T19:04:07.302Z,14.90
2022-10-21T19:06:39.505Z,14.80
2022-10-21T19:09:12.951Z,14.90
2022-10-21T19:11:40.596Z,14.90
2022-10-21T19:14:09.851Z,14.90
2022-10-21T19:16:39.901Z,14.90
2022-10-21T19:19:06.690Z,14.90
2022-10-21T19:21:33.373Z,14.90
2022-10-21T19:24:02.139Z,14.90
2022-10-21T19:26:28.891Z,14.90
2022-10-21T19:29:09.397Z,14.90
2022-10-21T19:31:37.644Z,14.90
2022-10-21T19:34:05.956Z,14.90
2022-10-21T19:36:32.604Z,15.00
2022-10-21T19:38:59.385Z,15.00
2022-10-21T19:41:26.047Z,15.00
2022-10-21T19:43:54.728Z,15.00
2022-10-21T19:46:24.828Z,15.10
2022-10-21T19:48:52.710Z,15.10
2022-10-21T19:51:20.408Z,15.10
2022-10-21T19:53:47.345Z,15.10
2022-10-21T19:56:14.670Z,15.10
2022-10-21T19:58:41.362Z,15.10
2022-10-21T20:01:10.407Z,15.10
2022-10-21T20:03:41.165Z,15.10
2022-10-21T20:06:15.805Z,15.10
2022-10-21T20:08:42.726Z,15.10
2022-10-21T20:11:14.555Z,15.10
2022-10-21T20:13:41.328Z,15.10
2022-10-21T20:16:08.275Z,15.10
2022-10-21T20:18:35.164Z,15.10
2022-10-21T20:21:05.741Z,15.10
2022-10-21T20:23:32.517Z,15.10
2022-10-21T20:25:59.256Z,15.10
2022-10-21T20:28:26.549Z,15.00
2022-10-21T20:30:56.636Z,15.00
2022-10-21T20:33:23.380Z,15.00
2022-10-21T20:35:50.451Z,15.00
2022-10-21T20:38:17.350Z,15.00
2022-10-21T20:40:44.277Z,15.00
2022-10-21T20:43:11.254Z,15.10
2022-10-21T20:45:37.983Z,15.10
2022-10-21T20:48:04.957Z,15.10
2022-10-21T20:50:31.617Z,15.10
2022-10-21T20:52:58.360Z,15.10
2022-10-21T20:55:25.046Z,15.00
2022-10-21T20:57:51.718Z,15.10
2022-10-21T21:00:18.440Z,15.10
2022-10-21T21:02:45.267Z,15.10
2022-10-21T21:05:12.396Z,15.10
2022-10-21T21:07:39.271Z,15.00
2022-10-21T21:10:06.773Z,15.00
2022-10-21T21:12:33.649Z,15.10
2022-10-21T21:15:00.382Z,15.10
2022-10-21T21:17:27.037Z,15.10
2022-10-21T21:19:53.989Z,15.10
2022-10-21T21:22:21.087Z,15.10
2022-10-21T21:24:48.631Z,15.10
2022-10-21T21:27:15.720Z,15.10
2022-10-21T21:29:42.371Z,15.10
2022-10-21T21:32:09.214Z,15.10
2022-10-21T21:34:35.880Z,15.20
2022-10-21T21:37:02.851Z,15.20
2022-10-21T21:39:29.593Z,15.20
2022-10-21T21:41:56.388Z,15.20
2022-10-21T21:44:23.021Z,15.20
2022-10-21T21:46:49.671Z,15.20
2022-10-21T21:49:16.486Z,15.20
2022-10-21T21:51:43.355Z,15.20
2022-10-21T21:54:10.371Z,15.20
2022-10-21T21:56:37.206Z,15.20
2022-10-21T21:59:04.277Z,15.30
2022-10-21T22:01:31.171Z,15.30
2022-10-21T22:03:57.954Z,15.30
2022-10-21T22:08:59.143Z,15.30
2022-10-21T22:11:27.867Z,15.30
2022-10-21T22:13:54.663Z,15.30
2022-10-21T22:16:24.324Z,15.30
2022-10-21T22:18:51.026Z,15.30
2022-10-21T22:21:18.340Z,15.30
2022-10-21T22:23:45.540Z,15.30
2022-10-21T22:26:12.663Z,15.20
2022-10-21T22:28:39.580Z,15.20
2022-10-21T22:31:11.210Z,15.20
2022-10-21T22:33:38.115Z,15.20
2022-10-21T22:36:07.568Z,15.20
2022-10-21T22:38:34.358Z,15.20
2022-10-21T22:41:02.200Z,15.20
2022-10-21T22:43:29.090Z,15.20
2022-10-21T22:46:05.346Z,15.20
2022-10-21T22:48:42.816Z,15.10
2022-10-21T22:51:09.642Z,15.10
2022-10-21T22:53:36.888Z,15.10
2022-10-21T22:56:03.848Z,15.10
2022-10-21T22:58:30.677Z,15.10
2022-10-21T23:00:57.392Z,15.10
2022-10-21T23:03:24.343Z,15.10
2022-10-21T23:05:51.180Z,15.10
2022-10-21T23:08:18.024Z,15.10
2022-10-21T23:10:47.988Z,15.10
2022-10-21T23:13:14.900Z,15.10
2022-10-21T23:15:41.585Z,15.00
2022-10-21T23:18:08.250Z,15.00
2022-10-21T23:20:35.323Z,15.00
2022-10-21T23:23:02.096Z,15.00
2022-10-21T23:25:28.869Z,15.00
2022-10-21T23:27:56.520Z,15.00
2022-10-21T23:30:23.475Z,15.00
2022-10-21T23:32:50.166Z,15.00
2022-10-21T23:35:17.308Z,15.00
2022-10-21T23:37:44.168Z,15.10
2022-10-21T23:40:12.015Z,15.00
2022-10-21T23:42:42.641Z,15.00
2022-10-21T23:45:11.042Z,15.00
2022-10-21T23:47:38.579Z,15.00
2022-10-21T23:50:06.968Z,15.00
2022-10-21T23:52:33.699Z,15.00
2022-10-21T23:55:00.677Z,15.00
2022-10-21T23:57:27.387Z,15.00
2022-10-21T23:59:54.147Z,15.00
